Latest Weather Observations for Hay Point

IDQ60801

Issued at 11:35 pm EST Monday 24 November 2014 (issued every 30 minutes, with the page automatically refreshed every 10 minutes)

About weather observations | Map of weather stations | Latest weather observations for QLD | Other Formats
Station Details ID: 033317 Name: HAY POINT Lat: -21.29 Lon: 149.30 Height: 7.0 m
Data from the previous 72 hours. | See also: Recent months for locations in Queensland
Date/Time
EST
Temp
°C
App
Temp
°C
Dew
Point
Rel
Hum
%
Delta-T
°C
Wind Press
QNH
hPa
Press
MSL
hPa
Rain
since 9 am
mm
Dir
 
Spd
km/h
Gust
km/h
Spd
kts
Gust
kts
24/11:30pm - - - - - NE 19 22 10 12 - - -
24/11:00pm - - - - - ENE 20 26 11 14 - - -
24/10:30pm - - - - - NE 22 26 12 14 - - -
24/10:00pm - - - - - NE 20 26 11 14 - - -
24/09:30pm - - - - - NE 24 28 13 15 - - -
24/09:00pm - - - - - NE 24 32 13 17 - - -
24/08:30pm - - - - - NE 24 28 13 15 - - -
24/08:00pm - - - - - NE 26 30 14 16 - - -
24/07:30pm - - - - - NE 24 28 13 15 - - -
24/07:00pm - - - - - ENE 20 28 11 15 - - -
24/06:30pm - - - - - ENE 20 26 11 14 - - -
24/06:00pm - - - - - NE 22 26 12 14 - - -
24/05:30pm - - - - - NE 22 26 12 14 - - -
24/05:00pm - - - - - NE 20 26 11 14 - - -
24/04:30pm - - - - - NE 24 28 13 15 - - -
24/04:00pm - - - - - ENE 26 30 14 16 - - -
24/03:30pm - - - - - ENE 20 26 11 14 - - -
24/03:00pm - - - - - ENE 26 30 14 16 - - -
24/02:30pm - - - - - ENE 24 28 13 15 - - -
24/02:00pm - - - - - ENE 20 26 11 14 - - -
24/01:30pm - - - - - ENE 19 24 10 13 - - -
24/01:00pm - - - - - ENE 19 22 10 12 - - -
24/12:30pm - - - - - NNE 19 26 10 14 - - -
24/12:00pm - - - - - ENE 19 24 10 13 - - -
24/11:30am - - - - - ENE 20 26 11 14 - - -
24/11:04am - - - - - ENE 28 32 15 17 - - -
24/11:00am - - - - - E 9 13 5 7 - - -
24/10:30am - - - - - E 7 9 4 5 - - -
24/10:00am - - - - - N 6 9 3 5 - - -
24/09:30am - - - - - N 13 15 7 8 - - -
24/09:00am - - - - - N 19 24 10 13 - - -
24/08:30am - - - - - NNE 30 35 16 19 - - -
24/08:00am - - - - - NNE 32 35 17 19 - - -
24/07:30am - - - - - NNE 35 41 19 22 - - -
24/07:07am - - - - - NE 39 44 21 24 - - -
24/07:00am - - - - - ENE 17 20 9 11 - - -
24/06:30am - - - - - ENE 17 20 9 11 - - -
24/06:00am - - - - - E 15 19 8 10 - - -
24/05:30am - - - - - ENE 17 22 9 12 - - -
24/05:00am - - - - - ENE 17 20 9 11 - - -
24/04:30am - - - - - ENE 19 22 10 12 - - -
24/04:00am - - - - - ENE 17 20 9 11 - - -
24/03:30am - - - - - ENE 19 24 10 13 - - -
24/03:00am - - - - - NE 19 22 10 12 - - -
24/02:30am - - - - - ENE 15 22 8 12 - - -
24/02:00am - - - - - NE 17 22 9 12 - - -
24/01:30am - - - - - NE 19 24 10 13 - - -
24/01:00am - - - - - NE 17 22 9 12 - - -
24/12:30am - - - - - NE 19 24 10 13 - - -
24/12:00am - - - - - NE 20 26 11 14 - - -
 
Date/Time
EST
Temp
°C
App
Temp
°C
Dew
Point
Rel
Hum
%
Delta-T
°C
Wind Press
QNH
hPa
Press
MSL
hPa
Rain
since 9 am
mm
Dir
 
Spd
km/h
Gust
km/h
Spd
kts
Gust
kts
23/11:30pm - - - - - NE 22 26 12 14 - - -
23/11:00pm - - - - - NE 19 24 10 13 - - -
23/10:30pm - - - - - NE 20 26 11 14 - - -
23/10:00pm - - - - - NE 20 26 11 14 - - -
23/09:30pm - - - - - ENE 20 24 11 13 - - -
23/09:00pm - - - - - ENE 22 26 12 14 - - -
23/08:30pm - - - - - ENE 20 22 11 12 - - -
23/08:00pm - - - - - NE 20 26 11 14 - - -
23/07:30pm - - - - - NE 20 26 11 14 - - -
23/07:00pm - - - - - NE 22 26 12 14 - - -
23/06:30pm - - - - - NE 22 26 12 14 - - -
23/06:00pm - - - - - NE 26 30 14 16 - - -
23/05:30pm - - - - - ENE 24 28 13 15 - - -
23/05:00pm - - - - - ENE 26 30 14 16 - - -
23/04:30pm - - - - - ENE 26 33 14 18 - - -
23/04:00pm - - - - - ENE 26 30 14 16 - - -
23/03:30pm - - - - - ENE 28 30 15 16 - - -
23/03:00pm - - - - - ENE 28 32 15 17 - - -
23/02:30pm - - - - - ENE 24 28 13 15 - - -
23/02:00pm - - - - - ENE 22 26 12 14 - - -
23/01:30pm - - - - - ENE 22 26 12 14 - - -
23/01:00pm - - - - - ENE 20 24 11 13 - - -
23/12:30pm - - - - - E 19 20 10 11 - - -
23/12:00pm - - - - - E 17 20 9 11 - - -
23/11:30am - - - - - ENE 17 22 9 12 - - -
23/11:00am - - - - - ENE 17 19 9 10 - - -
23/10:30am - - - - - ENE 15 19 8 10 - - -
23/10:00am - - - - - ENE 15 19 8 10 - - -
23/09:30am - - - - - NE 17 19 9 10 - - -
23/09:00am - - - - - NE 15 19 8 10 - - -
23/08:30am - - - - - NE 13 17 7 9 - - -
23/08:00am - - - - - NE 15 19 8 10 - - -
23/07:30am - - - - - NE 19 24 10 13 - - -
23/07:00am - - - - - NE 19 22 10 12 - - -
23/06:30am - - - - - NE 19 24 10 13 - - -
23/06:00am - - - - - NE 19 24 10 13 - - -
23/05:30am - - - - - NE 17 19 9 10 - - -
23/05:00am - - - - - NE 17 22 9 12 - - -
23/04:30am - - - - - NNE 17 20 9 11 - - -
23/04:00am - - - - - NNE 19 22 10 12 - - -
23/03:30am - - - - - NNE 19 22 10 12 - - -
23/03:00am - - - - - NNE 20 26 11 14 - - -
23/02:30am - - - - - NNE 19 24 10 13 - - -
23/02:00am - - - - - NNE 19 24 10 13 - - -
23/01:30am - - - - - NNE 20 26 11 14 - - -
23/01:00am - - - - - NNE 22 28 12 15 - - -
23/12:30am - - - - - NNE 26 30 14 16 - - -
23/12:00am - - - - - NNE 22 28 12 15 - - -
 
Date/Time
EST
Temp
°C
App
Temp
°C
Dew
Point
Rel
Hum
%
Delta-T
°C
Wind Press
QNH
hPa
Press
MSL
hPa
Rain
since 9 am
mm
Dir
 
Spd
km/h
Gust
km/h
Spd
kts
Gust
kts
22/11:30pm - - - - - NNE 22 28 12 15 - - -
22/11:00pm - - - - - NNE 24 28 13 15 - - -
22/10:30pm - - - - - NE 24 28 13 15 - - -
22/10:00pm - - - - - NE 24 26 13 14 - - -
22/09:30pm - - - - - NE 24 28 13 15 - - -
22/09:00pm - - - - - NE 28 32 15 17 - - -
22/08:30pm - - - - - NE 28 33 15 18 - - -
22/08:00pm - - - - - NE 28 32 15 17 - - -
22/07:30pm - - - - - NE 28 30 15 16 - - -
22/07:00pm - - - - - NE 26 30 14 16 - - -
22/06:30pm - - - - - NE 19 24 10 13 - - -
22/06:00pm - - - - - NE 22 26 12 14 - - -
22/05:30pm - - - - - NE 24 26 13 14 - - -
22/05:00pm - - - - - NE 22 28 12 15 - - -
22/04:30pm - - - - - NE 22 26 12 14 - - -
22/04:00pm - - - - - NE 22 24 12 13 - - -
22/03:30pm - - - - - NE 20 24 11 13 - - -
22/03:00pm - - - - - NE 22 28 12 15 - - -
22/02:30pm - - - - - NE 22 26 12 14 - - -
22/02:00pm - - - - - NE 20 26 11 14 - - -
22/01:30pm - - - - - NE 17 20 9 11 - - -
22/01:00pm - - - - - NE 19 20 10 11 - - -
22/12:30pm - - - - - NE 17 20 9 11 - - -
22/12:00pm - - - - - NE 20 24 11 13 - - -
22/11:30am - - - - - NE 19 28 10 15 - - -
22/11:00am - - - - - NE 17 19 9 10 - - -
22/10:30am - - - - - NNE 17 19 9 10 - - -
22/10:00am - - - - - NE 13 17 7 9 - - -
22/09:30am - - - - - NNE 13 17 7 9 - - -
22/09:00am - - - - - NNE 13 19 7 10 - - -
22/08:30am - - - - - N 15 17 8 9 - - -
22/08:00am - - - - - N 19 22 10 12 - - -
22/07:30am - - - - - N 11 17 6 9 - - -
22/07:00am - - - - - NNW 11 13 6 7 - - -
22/06:30am - - - - - NNW 9 17 5 9 - - -
22/06:00am - - - - - N 22 26 12 14 - - -
22/05:30am - - - - - N 24 28 13 15 - - -
22/05:00am - - - - - N 22 26 12 14 - - -
22/04:30am - - - - - N 22 28 12 15 - - -
22/04:00am - - - - - N 20 26 11 14 - - -
22/03:30am - - - - - N 24 28 13 15 - - -
22/03:00am - - - - - N 24 28 13 15 - - -
22/02:30am - - - - - N 20 24 11 13 - - -
22/02:00am - - - - - N 22 26 12 14 - - -
22/01:30am - - - - - N 19 24 10 13 - - -
22/01:00am - - - - - N 20 24 11 13 - - -
22/12:30am - - - - - N 24 28 13 15 - - -
22/12:00am - - - - - N 22 28 12 15 - - -

Other Formats:

Comma delimited format used in spreadsheet applications
http://www.bom.gov.au/fwo/IDQ60801/IDQ60801.99367.axf

JavaScript Object Notation format (JSON) in row-major order
http://www.bom.gov.au/fwo/IDQ60801/IDQ60801.99367.json